Aviation Digital Data Service (ADDS)

Output produced by METARs form (2153 UTC 08 August 2020)
found at http://www.aviationweather.gov/metar/data/
 
METAR text: KCLT 082052Z VRB04KT 10SM SCT040 SCT250 32/20 A3011 RMK AO2 SLP185 T03220200 56017
Conditions at: KCLT (CHARLOTTE , NC, US) observed 2052 UTC 08 August 2020
Temperature: 32.2°C (90°F)
Dewpoint: 20.0°C (68°F) [RH = 49%]
Pressure (altimeter): 30.11 inches Hg (1019.7 mb)
[Sea-level pressure: 1018.5 mb]
Winds: variable direction winds at 5 MPH (4 knots; 2.1 m/s)
Visibility: 10 or more miles (16+ km)
Ceiling: at least 12,000 feet AGL
Clouds: scattered clouds at 4000 feet AGL
scattered clouds at 25000 feet AGL
Weather: no significant weather observed at this time

METAR text: KCLT 081952Z 22006KT 10SM SCT040 SCT060 BKN250 32/21 A3012 RMK AO2 SLP189 TCU DSNT N T03220206
Conditions at: KCLT (CHARLOTTE , NC, US) observed 1952 UTC 08 August 2020
Temperature: 32.2°C (90°F)
Dewpoint: 20.6°C (69°F) [RH = 50%]
Pressure (altimeter): 30.12 inches Hg (1020.1 mb)
[Sea-level pressure: 1018.9 mb]
Winds: from the SW (220 degrees) at 7 MPH (6 knots; 3.1 m/s)
Visibility: 10 or more miles (16+ km)
Ceiling: 25000 feet AGL
Clouds: scattered clouds at 4000 feet AGL
scattered clouds at 6000 feet AGL
broken clouds at 25000 feet AGL
Weather: no significant weather observed at this time

METAR text: KCLT 081852Z VRB04KT 10SM SCT040 SCT055 32/21 A3014 RMK AO2 SLP196 T03170211
Conditions at: KCLT (CHARLOTTE , NC, US) observed 1852 UTC 08 August 2020
Temperature: 31.7°C (89°F)
Dewpoint: 21.1°C (70°F) [RH = 54%]
Pressure (altimeter): 30.14 inches Hg (1020.7 mb)
[Sea-level pressure: 1019.6 mb]
Winds: variable direction winds at 5 MPH (4 knots; 2.1 m/s)
Visibility: 10 or more miles (16+ km)
Ceiling: at least 12,000 feet AGL
Clouds: scattered clouds at 4000 feet AGL
scattered clouds at 5500 feet AGL
Weather: no significant weather observed at this time

METAR text: KCLT 081752Z VRB05KT 10SM BKN030 BKN040 31/21 A3016 RMK AO2 SLP202 T03110211 10311 20228 58006
Conditions at: KCLT (CHARLOTTE , NC, US) observed 1752 UTC 08 August 2020
Temperature: 31.1°C (88°F)
Dewpoint: 21.1°C (70°F) [RH = 55%]
Pressure (altimeter): 30.16 inches Hg (1021.4 mb)
[Sea-level pressure: 1020.2 mb]
Winds: variable direction winds at 6 MPH (5 knots; 2.6 m/s)
Visibility: 10 or more miles (16+ km)
Ceiling: 3000 feet AGL
Clouds: broken clouds at 3000 feet AGL
broken clouds at 4000 feet AGL
Weather: no significant weather observed at this time

METAR text: KCLT 081709Z VRB03KT 10SM BKN026 30/22 A3017 RMK AO2 T03000217
Conditions at: KCLT (CHARLOTTE , NC, US) observed 1709 UTC 08 August 2020
Temperature: 30.0°C (86°F)
Dewpoint: 21.7°C (71°F) [RH = 61%]
Pressure (altimeter): 30.17 inches Hg (1021.8 mb)
Winds: variable direction winds at 3 MPH (3 knots; 1.5 m/s)
Visibility: 10 or more miles (16+ km)
Ceiling: 2600 feet AGL
Clouds: broken clouds at 2600 feet AGL
Weather: no significant weather observed at this time

METAR text: KCLT 081652Z VRB03KT 10SM SCT026 30/21 A3017 RMK AO2 SLP206 T03000211
Conditions at: KCLT (CHARLOTTE , NC, US) observed 1652 UTC 08 August 2020
Temperature: 30.0°C (86°F)
Dewpoint: 21.1°C (70°F) [RH = 59%]
Pressure (altimeter): 30.17 inches Hg (1021.8 mb)
[Sea-level pressure: 1020.6 mb]
Winds: variable direction winds at 3 MPH (3 knots; 1.5 m/s)
Visibility: 10 or more miles (16+ km)
Ceiling: at least 12,000 feet AGL
Clouds: scattered clouds at 2600 feet AGL
Weather: no significant weather observed at this time

METAR text: KCLT 081552Z VRB03KT 10SM SCT020 29/21 A3018 RMK AO2 SLP208 T02940211
Conditions at: KCLT (CHARLOTTE , NC, US) observed 1552 UTC 08 August 2020
Temperature: 29.4°C (85°F)
Dewpoint: 21.1°C (70°F) [RH = 61%]
Pressure (altimeter): 30.18 inches Hg (1022.1 mb)
[Sea-level pressure: 1020.8 mb]
Winds: variable direction winds at 3 MPH (3 knots; 1.5 m/s)
Visibility: 10 or more miles (16+ km)
Ceiling: at least 12,000 feet AGL
Clouds: scattered clouds at 2000 feet AGL
Weather: no significant weather observed at this time

METAR text: KCLT 081452Z 28003KT 10SM SCT014 27/21 A3018 RMK AO2 SLP210 T02720206 51002
Conditions at: KCLT (CHARLOTTE , NC, US) observed 1452 UTC 08 August 2020
Temperature: 27.2°C (81°F)
Dewpoint: 20.6°C (69°F) [RH = 67%]
Pressure (altimeter): 30.18 inches Hg (1022.1 mb)
[Sea-level pressure: 1021.0 mb]
Winds: from the W (280 degrees) at 3 MPH (3 knots; 1.5 m/s)
Visibility: 10 or more miles (16+ km)
Ceiling: at least 12,000 feet AGL
Clouds: scattered clouds at 1400 feet AGL
Weather: no significant weather observed at this time

METAR text: KCLT 081352Z 00000KT 10SM BKN011 25/21 A3018 RMK AO2 SLP210 T02500211
Conditions at: KCLT (CHARLOTTE , NC, US) observed 1352 UTC 08 August 2020
Temperature: 25.0°C (77°F)
Dewpoint: 21.1°C (70°F) [RH = 79%]
Pressure (altimeter): 30.18 inches Hg (1022.1 mb)
[Sea-level pressure: 1021.0 mb]
Winds: calm
Visibility: 10 or more miles (16+ km)
Ceiling: 1100 feet AGL
Clouds: broken clouds at 1100 feet AGL
Weather: no significant weather observed at this time

METAR text: KCLT 081317Z VRB03KT 10SM BKN009 24/21 A3018 RMK AO2 T02440206
Conditions at: KCLT (CHARLOTTE , NC, US) observed 1317 UTC 08 August 2020
Temperature: 24.4°C (76°F)
Dewpoint: 20.6°C (69°F) [RH = 79%]
Pressure (altimeter): 30.18 inches Hg (1022.1 mb)
Winds: variable direction winds at 3 MPH (3 knots; 1.5 m/s)
Visibility: 10 or more miles (16+ km)
Ceiling: 900 feet AGL
Clouds: broken clouds at 900 feet AGL
Weather: no significant weather observed at this time

METAR text: KCLT 081252Z 19003KT 7SM BKN007 24/21 A3018 RMK AO2 SLP211 T02390206
Conditions at: KCLT (CHARLOTTE , NC, US) observed 1252 UTC 08 August 2020
Temperature: 23.9°C (75°F)
Dewpoint: 20.6°C (69°F) [RH = 82%]
Pressure (altimeter): 30.18 inches Hg (1022.1 mb)
[Sea-level pressure: 1021.1 mb]
Winds: from the S (190 degrees) at 3 MPH (3 knots; 1.5 m/s)
Visibility: 7 miles (11 km)
Ceiling: 700 feet AGL
Clouds: broken clouds at 700 feet AGL
Weather: no significant weather observed at this time

METAR text: KCLT 081219Z 25003KT 7SM BKN006 23/21 A3018 RMK AO2 T02330211
Conditions at: KCLT (CHARLOTTE , NC, US) observed 1219 UTC 08 August 2020
Temperature: 23.3°C (74°F)
Dewpoint: 21.1°C (70°F) [RH = 87%]
Pressure (altimeter): 30.18 inches Hg (1022.1 mb)
Winds: from the WSW (250 degrees) at 3 MPH (3 knots; 1.5 m/s)
Visibility: 7 miles (11 km)
Ceiling: 600 feet AGL
Clouds: broken clouds at 600 feet AGL
Weather: no significant weather observed at this time

METAR text: KCLT 081152Z 25004KT 6SM BR BKN003 BKN009 23/21 A3017 RMK AO2 SLP209 T02280211 10233 20217 53015
Conditions at: KCLT (CHARLOTTE , NC, US) observed 1152 UTC 08 August 2020
Temperature: 22.8°C (73°F)
Dewpoint: 21.1°C (70°F) [RH = 90%]
Pressure (altimeter): 30.17 inches Hg (1021.8 mb)
[Sea-level pressure: 1020.9 mb]
Winds: from the WSW (250 degrees) at 5 MPH (4 knots; 2.1 m/s)
Visibility: 6 miles (10 km)
Ceiling: 300 feet AGL
Clouds: broken clouds at 300 feet AGL
broken clouds at 900 feet AGL
Weather: BR  (mist)

METAR text: KCLT 081052Z 17005KT 10SM BKN005 23/21 A3015 RMK AO2 SLP202 T02280211
Conditions at: KCLT (CHARLOTTE , NC, US) observed 1052 UTC 08 August 2020
Temperature: 22.8°C (73°F)
Dewpoint: 21.1°C (70°F) [RH = 90%]
Pressure (altimeter): 30.15 inches Hg (1021.1 mb)
[Sea-level pressure: 1020.2 mb]
Winds: from the S (170 degrees) at 6 MPH (5 knots; 2.6 m/s)
Visibility: 10 or more miles (16+ km)
Ceiling: 500 feet AGL
Clouds: broken clouds at 500 feet AGL
Weather: no significant weather observed at this time

METAR text: KCLT 080952Z 17003KT 10SM BKN005 23/21 A3013 RMK AO2 SLP195 T02330211
Conditions at: KCLT (CHARLOTTE , NC, US) observed 0952 UTC 08 August 2020
Temperature: 23.3°C (74°F)
Dewpoint: 21.1°C (70°F) [RH = 87%]
Pressure (altimeter): 30.13 inches Hg (1020.4 mb)
[Sea-level pressure: 1019.5 mb]
Winds: from the S (170 degrees) at 3 MPH (3 knots; 1.5 m/s)
Visibility: 10 or more miles (16+ km)
Ceiling: 500 feet AGL
Clouds: broken clouds at 500 feet AGL
Weather: no significant weather observed at this time

METAR text: KCLT 080852Z 15003KT 10SM BKN005 23/21 A3013 RMK AO2 SLP191 T02330211 51002
Conditions at: KCLT (CHARLOTTE , NC, US) observed 0852 UTC 08 August 2020
Temperature: 23.3°C (74°F)
Dewpoint: 21.1°C (70°F) [RH = 87%]
Pressure (altimeter): 30.13 inches Hg (1020.4 mb)
[Sea-level pressure: 1019.1 mb]
Winds: from the SSE (150 degrees) at 3 MPH (3 knots; 1.5 m/s)
Visibility: 10 or more miles (16+ km)
Ceiling: 500 feet AGL
Clouds: broken clouds at 500 feet AGL
Weather: no significant weather observed at this time

METAR text: KCLT 080752Z 00000KT 10SM BKN007 23/21 A3013 RMK AO2 SLP192 T02280206
Conditions at: KCLT (CHARLOTTE , NC, US) observed 0752 UTC 08 August 2020
Temperature: 22.8°C (73°F)
Dewpoint: 20.6°C (69°F) [RH = 87%]
Pressure (altimeter): 30.13 inches Hg (1020.4 mb)
[Sea-level pressure: 1019.2 mb]
Winds: calm
Visibility: 10 or more miles (16+ km)
Ceiling: 700 feet AGL
Clouds: broken clouds at 700 feet AGL
Weather: no significant weather observed at this time

METAR text: KCLT 080734Z 00000KT 10SM BKN007 22/21 A3013 RMK AO2 T02220206
Conditions at: KCLT (CHARLOTTE , NC, US) observed 0734 UTC 08 August 2020
Temperature: 22.2°C (72°F)
Dewpoint: 20.6°C (69°F) [RH = 91%]
Pressure (altimeter): 30.13 inches Hg (1020.4 mb)
Winds: calm
Visibility: 10 or more miles (16+ km)
Ceiling: 700 feet AGL
Clouds: broken clouds at 700 feet AGL
Weather: no significant weather observed at this time

METAR text: KCLT 080725Z 00000KT 9SM SCT008 22/21 A3013 RMK AO2 T02220206
Conditions at: KCLT (CHARLOTTE , NC, US) observed 0725 UTC 08 August 2020
Temperature: 22.2°C (72°F)
Dewpoint: 20.6°C (69°F) [RH = 91%]
Pressure (altimeter): 30.13 inches Hg (1020.4 mb)
Winds: calm
Visibility: 9 miles (14 km)
Ceiling: at least 12,000 feet AGL
Clouds: scattered clouds at 800 feet AGL
Weather: no significant weather observed at this time

METAR text: KCLT 080652Z 32004KT 10SM FEW045 SCT210 22/21 A3013 RMK AO2 SLP193 T02220206
Conditions at: KCLT (CHARLOTTE , NC, US) observed 0652 UTC 08 August 2020
Temperature: 22.2°C (72°F)
Dewpoint: 20.6°C (69°F) [RH = 91%]
Pressure (altimeter): 30.13 inches Hg (1020.4 mb)
[Sea-level pressure: 1019.3 mb]
Winds: from the NW (320 degrees) at 5 MPH (4 knots; 2.1 m/s)
Visibility: 10 or more miles (16+ km)
Ceiling: at least 12,000 feet AGL
Clouds: few clouds at 4500 feet AGL
scattered clouds at 21000 feet AGL
Weather: no significant weather observed at this time

METAR text: KCLT 080552Z 00000KT 10SM FEW045 BKN210 23/21 A3012 RMK AO2 SLP190 T02280206 10256 20228 58004
Conditions at: KCLT (CHARLOTTE , NC, US) observed 0552 UTC 08 August 2020
Temperature: 22.8°C (73°F)
Dewpoint: 20.6°C (69°F) [RH = 87%]
Pressure (altimeter): 30.12 inches Hg (1020.1 mb)
[Sea-level pressure: 1019.0 mb]
Winds: calm
Visibility: 10 or more miles (16+ km)
Ceiling: 21000 feet AGL
Clouds: few clouds at 4500 feet AGL
broken clouds at 21000 feet AGL
Weather: no significant weather observed at this time

METAR text: KCLT 080452Z 16004KT 10SM FEW045 BKN190 23/21 A3013 RMK AO2 SLP194 T02280211 403060211
Conditions at: KCLT (CHARLOTTE , NC, US) observed 0452 UTC 08 August 2020
Temperature: 22.8°C (73°F)
Dewpoint: 21.1°C (70°F) [RH = 90%]
Pressure (altimeter): 30.13 inches Hg (1020.4 mb)
[Sea-level pressure: 1019.4 mb]
Winds: from the SSE (160 degrees) at 5 MPH (4 knots; 2.1 m/s)
Visibility: 10 or more miles (16+ km)
Ceiling: 19000 feet AGL
Clouds: few clouds at 4500 feet AGL
broken clouds at 19000 feet AGL
Weather: no significant weather observed at this time

METAR text: KCLT 080352Z 18004KT 10SM FEW037 SCT055 BKN200 23/21 A3014 RMK AO2 SLP195 T02330211
Conditions at: KCLT (CHARLOTTE , NC, US) observed 0352 UTC 08 August 2020
Temperature: 23.3°C (74°F)
Dewpoint: 21.1°C (70°F) [RH = 87%]
Pressure (altimeter): 30.14 inches Hg (1020.7 mb)
[Sea-level pressure: 1019.5 mb]
Winds: from the S (180 degrees) at 5 MPH (4 knots; 2.1 m/s)
Visibility: 10 or more miles (16+ km)
Ceiling: 20000 feet AGL
Clouds: few clouds at 3700 feet AGL
scattered clouds at 5500 feet AGL
broken clouds at 20000 feet AGL
Weather: no significant weather observed at this time

METAR text: KCLT 080252Z 21006KT 10SM FEW060 SCT150 BKN250 24/21 A3013 RMK AO2 SLP196 T02440206 51015
Conditions at: KCLT (CHARLOTTE , NC, US) observed 0252 UTC 08 August 2020
Temperature: 24.4°C (76°F)
Dewpoint: 20.6°C (69°F) [RH = 79%]
Pressure (altimeter): 30.13 inches Hg (1020.4 mb)
[Sea-level pressure: 1019.6 mb]
Winds: from the SSW (210 degrees) at 7 MPH (6 knots; 3.1 m/s)
Visibility: 10 or more miles (16+ km)
Ceiling: 25000 feet AGL
Clouds: few clouds at 6000 feet AGL
scattered clouds at 15000 feet AGL
broken clouds at 25000 feet AGL
Weather: no significant weather observed at this time

METAR text: KCLT 080152Z 17004KT 10SM SCT150 BKN250 23/20 A3013 RMK AO2 LTG DSNT W SLP195 T02330200
Conditions at: KCLT (CHARLOTTE , NC, US) observed 0152 UTC 08 August 2020
Temperature: 23.3°C (74°F)
Dewpoint: 20.0°C (68°F) [RH = 82%]
Pressure (altimeter): 30.13 inches Hg (1020.4 mb)
[Sea-level pressure: 1019.5 mb]
Winds: from the S (170 degrees) at 5 MPH (4 knots; 2.1 m/s)
Visibility: 10 or more miles (16+ km)
Ceiling: 25000 feet AGL
Clouds: scattered clouds at 15000 feet AGL
broken clouds at 25000 feet AGL
Weather: no significant weather observed at this time

METAR text: KCLT 080052Z 00000KT 10SM FEW080 SCT100 BKN160 23/19 A3010 RMK AO2 LTG DSNT W AND NW SLP183 CB DSNT W-N T02330189
Conditions at: KCLT (CHARLOTTE , NC, US) observed 0052 UTC 08 August 2020
Temperature: 23.3°C (74°F)
Dewpoint: 18.9°C (66°F) [RH = 76%]
Pressure (altimeter): 30.10 inches Hg (1019.4 mb)
[Sea-level pressure: 1018.3 mb]
Winds: calm
Visibility: 10 or more miles (16+ km)
Ceiling: 16000 feet AGL
Clouds: few clouds at 8000 feet AGL
scattered clouds at 10000 feet AGL
broken clouds at 16000 feet AGL
Weather: no significant weather observed at this time

METAR text: KCLT 072352Z 05003KT 10SM FEW065 FEW080 SCT100 BKN160 25/19 A3009 RMK AO2 LTG DSNT NW TSB02E17 SLP181 OCNL LTGICCCCG DSNT NE AND NW CB DSNT NE AND NW T02500194 10306 20250 50004
Conditions at: KCLT (CHARLOTTE , NC, US) observed 2352 UTC 07 August 2020
Temperature: 25.0°C (77°F)
Dewpoint: 19.4°C (67°F) [RH = 71%]
Pressure (altimeter): 30.09 inches Hg (1019.0 mb)
[Sea-level pressure: 1018.1 mb]
Winds: from the NE (50 degrees) at 3 MPH (3 knots; 1.5 m/s)
Visibility: 10 or more miles (16+ km)
Ceiling: 16000 feet AGL
Clouds: few clouds at 6500 feet AGL
few clouds at 8000 feet AGL
scattered clouds at 10000 feet AGL
broken clouds at 16000 feet AGL
Weather: no significant weather observed at this time

METAR text: KCLT 072350Z 00000KT 10SM FEW065 FEW080 SCT100 BKN160 25/19 A3009 RMK AO2 LTG DSNT NE AND NW TSB02E17 OCNL LTGICCCCG DSNT NE AND NW CB DSNT NE AND NW
Conditions at: KCLT (CHARLOTTE , NC, US) observed 2350 UTC 07 August 2020
Temperature: 25.0°C (77°F)
Dewpoint: 19.0°C (66°F) [RH = 69%]
Pressure (altimeter): 30.09 inches Hg (1019.0 mb)
Winds: calm
Visibility: 10 or more miles (16+ km)
Ceiling: 16000 feet AGL
Clouds: few clouds at 6500 feet AGL
few clouds at 8000 feet AGL
scattered clouds at 10000 feet AGL
broken clouds at 16000 feet AGL
Weather: no significant weather observed at this time

METAR text: KCLT 072323Z 17006KT 10SM VCTS FEW028 BKN065 OVC080 25/19 A3009 RMK AO2 LTG DSNT NW-E TSB02E17 OCNL LTGICCCCG DSNT NE-SE TS MOV NE CB DSNT NE-SE T02500189
Conditions at: KCLT (CHARLOTTE , NC, US) observed 2323 UTC 07 August 2020
Temperature: 25.0°C (77°F)
Dewpoint: 18.9°C (66°F) [RH = 69%]
Pressure (altimeter): 30.09 inches Hg (1019.0 mb)
Winds: from the S (170 degrees) at 7 MPH (6 knots; 3.1 m/s)
Visibility: 10 or more miles (16+ km)
Ceiling: 6500 feet AGL
Clouds: few clouds at 2800 feet AGL
broken clouds at 6500 feet AGL
overcast cloud deck at 8000 feet AGL
Weather: VCTS  (thunderstorm in vicinity)

METAR text: KCLT 072303Z COR 18015KT 10SM TS SCT028 BKN030 BKN039CB 28/20 A3009 RMK AO2 LTG DSNT E-SW TSE32 SLP179 OCNL LTGICCCCG S-SW AND DSNT E-SE TS S-SW MOV NE CB DSNT E-SE T02780200
Conditions at: KCLT (CHARLOTTE , NC, US) observed 2303 UTC 07 August 2020
Temperature: 27.8°C (82°F)
Dewpoint: 20.0°C (68°F) [RH = 63%]
Pressure (altimeter): 30.09 inches Hg (1019.0 mb)
[Sea-level pressure: 1017.9 mb]
Winds: from the S (180 degrees) at 17 MPH (15 knots; 7.7 m/s)
Visibility: 10 or more miles (16+ km)
Ceiling: 3000 feet AGL
Clouds: scattered clouds at 2800 feet AGL
broken clouds at 3000 feet AGL
broken clouds at 3900 feet AGL
Weather: TS  (thunderstorm)

METAR text: KCLT 072252Z COR 18015KT 10SM VCTS FEW025 SCT030 BKN035 28/20 A3009 RMK AO2 LTG DSNT E-SW TSE32 SLP179 OCNL LTGICCCCG S-SW AND DSNT E-SE TS S-SW MOV NE CB DSNT E-SE T02780200
Conditions at: KCLT (CHARLOTTE , NC, US) observed 2252 UTC 07 August 2020
Temperature: 27.8°C (82°F)
Dewpoint: 20.0°C (68°F) [RH = 63%]
Pressure (altimeter): 30.09 inches Hg (1019.0 mb)
[Sea-level pressure: 1017.9 mb]
Winds: from the S (180 degrees) at 17 MPH (15 knots; 7.7 m/s)
Visibility: 10 or more miles (16+ km)
Ceiling: 3500 feet AGL
Clouds: few clouds at 2500 feet AGL
scattered clouds at 3000 feet AGL
broken clouds at 3500 feet AGL
Weather: VCTS  (thunderstorm in vicinity)

METAR text: KCLT 072234Z 00000KT 10SM VCTS SCT030 SCT035 BKN120 BKN140 29/22 A3008 RMK AO2 LTG DSNT S AND SW TSE32 OCNL LTGICCCCG DSNT S-SW CB DSNT E-S-SW T02940217
Conditions at: KCLT (CHARLOTTE , NC, US) observed 2234 UTC 07 August 2020
Temperature: 29.4°C (85°F)
Dewpoint: 21.7°C (71°F) [RH = 63%]
Pressure (altimeter): 30.08 inches Hg (1018.7 mb)
Winds: calm
Visibility: 10 or more miles (16+ km)
Ceiling: 12000 feet AGL
Clouds: scattered clouds at 3000 feet AGL
scattered clouds at 3500 feet AGL
broken clouds at 12000 feet AGL
broken clouds at 14000 feet AGL
Weather: VCTS  (thunderstorm in vicinity)

METAR text: KCLT 072152Z 00000KT 10SM FEW035 SCT120 SCT140 BKN250 29/22 A3008 RMK AO2 LTG DSNT SW SLP176 T02890217
Conditions at: KCLT (CHARLOTTE , NC, US) observed 2152 UTC 07 August 2020
Temperature: 28.9°C (84°F)
Dewpoint: 21.7°C (71°F) [RH = 65%]
Pressure (altimeter): 30.08 inches Hg (1018.7 mb)
[Sea-level pressure: 1017.6 mb]
Winds: calm
Visibility: 10 or more miles (16+ km)
Ceiling: 25000 feet AGL
Clouds: few clouds at 3500 feet AGL
scattered clouds at 12000 feet AGL
scattered clouds at 14000 feet AGL
broken clouds at 25000 feet AGL
Weather: no significant weather observed at this time

METAR text: KCLT 072052Z VRB03KT 10SM FEW025 SCT035 BKN140 BKN250 31/21 A3006 RMK AO2 SLP171 T03060211 58019
Conditions at: KCLT (CHARLOTTE , NC, US) observed 2052 UTC 07 August 2020
Temperature: 30.6°C (87°F)
Dewpoint: 21.1°C (70°F) [RH = 57%]
Pressure (altimeter): 30.06 inches Hg (1018.0 mb)
[Sea-level pressure: 1017.1 mb]
Winds: variable direction winds at 3 MPH (3 knots; 1.5 m/s)
Visibility: 10 or more miles (16+ km)
Ceiling: 14000 feet AGL
Clouds: few clouds at 2500 feet AGL
scattered clouds at 3500 feet AGL
broken clouds at 14000 feet AGL
broken clouds at 25000 feet AGL
Weather: no significant weather observed at this time

METAR text: KCLT 071952Z VRB03KT 10SM FEW035 BKN140 BKN250 29/22 A3008 RMK AO2 SLP176 T02940217
Conditions at: KCLT (CHARLOTTE , NC, US) observed 1952 UTC 07 August 2020
Temperature: 29.4°C (85°F)
Dewpoint: 21.7°C (71°F) [RH = 63%]
Pressure (altimeter): 30.08 inches Hg (1018.7 mb)
[Sea-level pressure: 1017.6 mb]
Winds: variable direction winds at 3 MPH (3 knots; 1.5 m/s)
Visibility: 10 or more miles (16+ km)
Ceiling: 14000 feet AGL
Clouds: few clouds at 3500 feet AGL
broken clouds at 14000 feet AGL
broken clouds at 25000 feet AGL
Weather: no significant weather observed at this time

METAR text: KCLT 071906Z 30003KT 10SM SCT026 BKN150 BKN250 29/21 A3010 RMK AO2 T02890211
Conditions at: KCLT (CHARLOTTE , NC, US) observed 1906 UTC 07 August 2020
Temperature: 28.9°C (84°F)
Dewpoint: 21.1°C (70°F) [RH = 63%]
Pressure (altimeter): 30.10 inches Hg (1019.4 mb)
Winds: from the WNW (300 degrees) at 3 MPH (3 knots; 1.5 m/s)
Visibility: 10 or more miles (16+ km)
Ceiling: 15000 feet AGL
Clouds: scattered clouds at 2600 feet AGL
broken clouds at 15000 feet AGL
broken clouds at 25000 feet AGL
Weather: no significant weather observed at this time

METAR text: KCLT 071852Z 02004KT 10SM BKN026 BKN150 BKN250 29/22 A3011 RMK AO2 SLP186 T02890217
Conditions at: KCLT (CHARLOTTE , NC, US) observed 1852 UTC 07 August 2020
Temperature: 28.9°C (84°F)
Dewpoint: 21.7°C (71°F) [RH = 65%]
Pressure (altimeter): 30.11 inches Hg (1019.7 mb)
[Sea-level pressure: 1018.6 mb]
Winds: from the NNE (20 degrees) at 5 MPH (4 knots; 2.1 m/s)
Visibility: 10 or more miles (16+ km)
Ceiling: 2600 feet AGL
Clouds: broken clouds at 2600 feet AGL
broken clouds at 15000 feet AGL
broken clouds at 25000 feet AGL
Weather: no significant weather observed at this time

METAR text: KCLT 071752Z VRB04KT 10SM SCT018 BKN026 BKN070 28/22 A3012 RMK AO2 SLP190 T02780217 10278 20222 58002
Conditions at: KCLT (CHARLOTTE , NC, US) observed 1752 UTC 07 August 2020
Temperature: 27.8°C (82°F)
Dewpoint: 21.7°C (71°F) [RH = 69%]
Pressure (altimeter): 30.12 inches Hg (1020.1 mb)
[Sea-level pressure: 1019.0 mb]
Winds: variable direction winds at 5 MPH (4 knots; 2.1 m/s)
Visibility: 10 or more miles (16+ km)
Ceiling: 2600 feet AGL
Clouds: scattered clouds at 1800 feet AGL
broken clouds at 2600 feet AGL
broken clouds at 7000 feet AGL
Weather: no significant weather observed at this time

METAR text: KCLT 071652Z VRB03KT 10SM BKN012 OVC016 26/21 A3013 RMK AO2 SLP196 T02610211
Conditions at: KCLT (CHARLOTTE , NC, US) observed 1652 UTC 07 August 2020
Temperature: 26.1°C (79°F)
Dewpoint: 21.1°C (70°F) [RH = 74%]
Pressure (altimeter): 30.13 inches Hg (1020.4 mb)
[Sea-level pressure: 1019.6 mb]
Winds: variable direction winds at 3 MPH (3 knots; 1.5 m/s)
Visibility: 10 or more miles (16+ km)
Ceiling: 1200 feet AGL
Clouds: broken clouds at 1200 feet AGL
overcast cloud deck at 1600 feet AGL
Weather: no significant weather observed at this time

METAR text: KCLT 071552Z 00000KT 10SM BKN010 BKN070 27/21 A3012 RMK AO2 SLP192 T02670211
Conditions at: KCLT (CHARLOTTE , NC, US) observed 1552 UTC 07 August 2020
Temperature: 26.7°C (80°F)
Dewpoint: 21.1°C (70°F) [RH = 71%]
Pressure (altimeter): 30.12 inches Hg (1020.1 mb)
[Sea-level pressure: 1019.2 mb]
Winds: calm
Visibility: 10 or more miles (16+ km)
Ceiling: 1000 feet AGL
Clouds: broken clouds at 1000 feet AGL
broken clouds at 7000 feet AGL
Weather: no significant weather observed at this time

METAR text: KCLT 071452Z 00000KT 10SM BKN006 OVC009 24/21 A3013 RMK AO2 SLP194 T02440211 50010
Conditions at: KCLT (CHARLOTTE , NC, US) observed 1452 UTC 07 August 2020
Temperature: 24.4°C (76°F)
Dewpoint: 21.1°C (70°F) [RH = 82%]
Pressure (altimeter): 30.13 inches Hg (1020.4 mb)
[Sea-level pressure: 1019.4 mb]
Winds: calm
Visibility: 10 or more miles (16+ km)
Ceiling: 600 feet AGL
Clouds: broken clouds at 600 feet AGL
overcast cloud deck at 900 feet AGL
Weather: no significant weather observed at this time

METAR text: KCLT 071406Z 36004KT 10SM BKN004 OVC008 23/21 A3013 RMK AO2 T02330211
Conditions at: KCLT (CHARLOTTE , NC, US) observed 1406 UTC 07 August 2020
Temperature: 23.3°C (74°F)
Dewpoint: 21.1°C (70°F) [RH = 87%]
Pressure (altimeter): 30.13 inches Hg (1020.4 mb)
Winds: from the N (360 degrees) at 5 MPH (4 knots; 2.1 m/s)
Visibility: 10 or more miles (16+ km)
Ceiling: 400 feet AGL
Clouds: broken clouds at 400 feet AGL
overcast cloud deck at 800 feet AGL
Weather: no significant weather observed at this time

METAR text: KCLT 071352Z 34004KT 10SM OVC006 23/21 A3013 RMK AO2 SLP194 T02330211
Conditions at: KCLT (CHARLOTTE , NC, US) observed 1352 UTC 07 August 2020
Temperature: 23.3°C (74°F)
Dewpoint: 21.1°C (70°F) [RH = 87%]
Pressure (altimeter): 30.13 inches Hg (1020.4 mb)
[Sea-level pressure: 1019.4 mb]
Winds: from the NNW (340 degrees) at 5 MPH (4 knots; 2.1 m/s)
Visibility: 10 or more miles (16+ km)
Ceiling: 600 feet AGL
Clouds: overcast cloud deck at 600 feet AGL
Weather: no significant weather observed at this time

METAR text: KCLT 071252Z VRB04KT 10SM OVC006 23/21 A3011 RMK AO2 SLP187 T02280206
Conditions at: KCLT (CHARLOTTE , NC, US) observed 1252 UTC 07 August 2020
Temperature: 22.8°C (73°F)
Dewpoint: 20.6°C (69°F) [RH = 87%]
Pressure (altimeter): 30.11 inches Hg (1019.7 mb)
[Sea-level pressure: 1018.7 mb]
Winds: variable direction winds at 5 MPH (4 knots; 2.1 m/s)
Visibility: 10 or more miles (16+ km)
Ceiling: 600 feet AGL
Clouds: overcast cloud deck at 600 feet AGL
Weather: no significant weather observed at this time

METAR text: KCLT 071152Z 09005KT 10SM OVC007 22/20 A3010 RMK AO2 SLP182 70046 T02220200 10228 20211 51005
Conditions at: KCLT (CHARLOTTE , NC, US) observed 1152 UTC 07 August 2020
Temperature: 22.2°C (72°F)
Dewpoint: 20.0°C (68°F) [RH = 87%]
Pressure (altimeter): 30.10 inches Hg (1019.4 mb)
[Sea-level pressure: 1018.2 mb]
Winds: from the E (90 degrees) at 6 MPH (5 knots; 2.6 m/s)
Visibility: 10 or more miles (16+ km)
Ceiling: 700 feet AGL
Clouds: overcast cloud deck at 700 feet AGL
Weather: no significant weather observed at this time

METAR text: KCLT 071131Z 07005KT 10SM OVC007 22/20 A3010 RMK AO2 CIG 007V010 T02220200
Conditions at: KCLT (CHARLOTTE , NC, US) observed 1131 UTC 07 August 2020
Temperature: 22.2°C (72°F)
Dewpoint: 20.0°C (68°F) [RH = 87%]
Pressure (altimeter): 30.10 inches Hg (1019.4 mb)
Winds: from the ENE (70 degrees) at 6 MPH (5 knots; 2.6 m/s)
Visibility: 10 or more miles (16+ km)
Ceiling: 700 feet AGL
Clouds: overcast cloud deck at 700 feet AGL
Weather: no significant weather observed at this time

METAR text: KCLT 071052Z 09005KT 10SM OVC010 22/20 A3009 RMK AO2 SLP181 T02220200
Conditions at: KCLT (CHARLOTTE , NC, US) observed 1052 UTC 07 August 2020
Temperature: 22.2°C (72°F)
Dewpoint: 20.0°C (68°F) [RH = 87%]
Pressure (altimeter): 30.09 inches Hg (1019.0 mb)
[Sea-level pressure: 1018.1 mb]
Winds: from the E (90 degrees) at 6 MPH (5 knots; 2.6 m/s)
Visibility: 10 or more miles (16+ km)
Ceiling: 1000 feet AGL
Clouds: overcast cloud deck at 1000 feet AGL
Weather: no significant weather observed at this time

Forecast for: KCLT (CHARLOTTE , NC, US)
Text: KCLT 081958Z 0820/0924 22005KT P6SM SCT050 SCT250
Forecast period: 2000 UTC 08 August 2020 to 0000 UTC 09 August 2020
Forecast type: FROM: standard forecast or significant change
Winds: from the SW (220 degrees) at 6 MPH (5 knots; 2.6 m/s)
Visibility: 6 or more miles (10+ km)
Ceiling: at least 12,000 feet AGL
Clouds: scattered clouds at 5000 feet AGL
scattered clouds at 25000 feet AGL
Weather: no significant weather forecast for this period
Text: FM090000 13003KT P6SM SCT100
Forecast period: 0000 to 1800 UTC 09 August 2020
Forecast type: FROM: standard forecast or significant change
Winds: from the SE (130 degrees) at 3 MPH (3 knots; 1.5 m/s)
Visibility: 6 or more miles (10+ km)
Ceiling: at least 12,000 feet AGL
Clouds: scattered clouds at 10000 feet AGL
Weather: no significant weather forecast for this period
Text: FM091800 23003KT P6SM FEW050 SCT250
Forecast period: 1800 UTC 09 August 2020 to 0000 UTC 10 August 2020
Forecast type: FROM: standard forecast or significant change
Winds: from the SW (230 degrees) at 3 MPH (3 knots; 1.5 m/s)
Visibility: 6 or more miles (10+ km)
Ceiling: at least 12,000 feet AGL
Clouds: few clouds at 5000 feet AGL
scattered clouds at 25000 feet AGL
Weather: no significant weather forecast for this period